EHRD

Rotterdam Airport

Rotterdam, The Netherlands
METAR EHRD 201025Z AUTO 09006KT 9999 NCD M00/M05 Q1018 NOSIG
Observed Flight Rules
Jan-20 @ 10:25 UTC (34 minutes ago) Visual Flight Rules
Wind Visibility Clouds
90° at 6 knots 10,000+ meters
  • Clear skies
Temperatures Readings
Current 0°C / 32°F
Dewpoint -5°C / 23°F
Humidity 69%
Altimeter 30.06" Hg
Pressure 1017.92 hPa
Elevation -5
METAR EHRD 201025Z AUTO 09006KT 9999 NCD M00/M05 Q1018 NOSIG
Observed Flight Rules
Jan-20 @ 10:25 UTC
(34 minutes ago)
VFR
Wind Visibility
90° at 6 knots 10,000+ meters
Clouds
  • Clear skies
Temperature Dewpoint
0°C / 32°F -5°C / 23°F
Humidity Altimeter Pressure
69% 30.06" Hg 1017.92 hPa